メインページ
METAR-TAF:

METAR-TAF

空港 :

富山, 日本

富山空港

緯度: 36-39N, 経度: 137-11E, 海抜: 24m

現時点の気象観測

当レポートは55分前の23:00(UTC)に作成
の風 3kt、南東から南西の間で変化する
気温 -1°C
湿度 64%
気圧 1023 hPa
視程10km以上
高度2000ftの雲はほとんどない
高度7000ftの雲は散在している

METAR: RJNT 182300Z 19003KT 140V220 9999 FEW020 SCT070 M01/M07 Q1023

時間: 08:55 (23:55 UTC)

予報

当レポートは47分前の23:08(UTC)に作成
予報は19日の 00時(UTC)から 20日の 06時(UTC)まで有効
の風 5kt
視程10km以上
高度2000ftの雲はほとんどない
高度5000ftの雲は散在している
19日の 00時(UTC)から 19日の 02時(UTC)まで徐々に
北西の風 5kt
19日の 08時(UTC)から 19日の 10時(UTC)まで徐々に
南/南西の風 5kt

TAF: RJNT 182308Z 1900/2006 18005KT 9999 FEW020 SCT050 BECMG 1900/1902 32005KT BECMG 1908/1910 20005KT

4,000以上の空港の気象観測と天気予報(METAR報とTAF報)

利用可能な観測所は地図上に黄色い丸と赤い丸で示す。

丸の上にカーソルを重ねると観測所名を参照できる。

次にクリックすると気象観測と天気予報を参照できる。

マップの切り替え:黒色「×」印の緑ボタンをクリックして拡大、「-」印の緑ボタンをクリックして縮小、緑色の三角印をクリックして隣りの地図に切り替え


METAR-TAF: